createdAt,value
2024-03-07T00:00:18.192Z,3.90
2024-03-07T00:02:49.360Z,3.90
2024-03-07T00:05:18.487Z,3.90
2024-03-07T00:07:47.662Z,3.90
2024-03-07T00:10:16.949Z,3.80
2024-03-07T00:12:45.720Z,3.80
2024-03-07T00:15:16.639Z,3.70
2024-03-07T00:17:45.125Z,3.70
2024-03-07T00:20:17.269Z,3.70
2024-03-07T00:22:46.204Z,3.60
2024-03-07T00:25:14.745Z,3.60
2024-03-07T00:27:46.554Z,3.60
2024-03-07T00:30:19.917Z,3.50
2024-03-07T00:32:49.224Z,3.50
2024-03-07T00:35:18.193Z,3.40
2024-03-07T00:37:46.733Z,3.40
2024-03-07T00:40:15.214Z,3.40
2024-03-07T00:42:44.093Z,3.40
2024-03-07T00:45:13.066Z,3.30
2024-03-07T00:47:43.319Z,3.30
2024-03-07T00:50:12.631Z,3.30
2024-03-07T00:52:41.221Z,3.20
2024-03-07T00:55:10.694Z,3.20
2024-03-07T00:57:39.397Z,3.20
2024-03-07T01:00:15.412Z,3.20
2024-03-07T01:02:47.193Z,3.10
2024-03-07T01:05:15.968Z,3.10
2024-03-07T01:07:45.759Z,3.10
2024-03-07T01:10:14.757Z,3.00
2024-03-07T01:12:44.633Z,3.00
2024-03-07T01:15:13.306Z,3.00
2024-03-07T01:17:42.225Z,2.90
2024-03-07T01:20:13.163Z,2.90
2024-03-07T01:22:41.879Z,2.90
2024-03-07T01:25:10.542Z,2.80
2024-03-07T01:27:38.904Z,2.80
2024-03-07T01:30:09.216Z,2.80
2024-03-07T01:32:37.921Z,2.70
2024-03-07T01:35:08.713Z,2.70
2024-03-07T01:37:38.548Z,2.70
2024-03-07T01:40:07.852Z,2.70
2024-03-07T01:42:36.768Z,2.60
2024-03-07T01:45:05.786Z,2.60
2024-03-07T01:47:34.345Z,2.60
2024-03-07T01:50:02.951Z,2.50
2024-03-07T01:52:31.962Z,2.50
2024-03-07T01:55:04.171Z,2.50
2024-03-07T01:57:32.857Z,2.50
2024-03-07T02:00:05.113Z,2.50
2024-03-07T02:02:35.678Z,2.40
2024-03-07T02:05:04.146Z,2.30
2024-03-07T02:07:32.953Z,2.30
2024-03-07T02:10:04.985Z,2.30
2024-03-07T02:12:33.562Z,2.30
2024-03-07T02:15:02.023Z,2.20
2024-03-07T02:17:31.059Z,2.20
2024-03-07T02:20:00.000Z,2.20
2024-03-07T02:22:29.772Z,2.10
2024-03-07T02:24:58.108Z,2.20
2024-03-07T02:27:26.421Z,2.10
2024-03-07T02:29:54.874Z,2.10
2024-03-07T02:32:24.378Z,2.10
2024-03-07T02:34:52.775Z,2.10
2024-03-07T02:37:21.348Z,2.00
2024-03-07T02:39:51.567Z,2.00
2024-03-07T02:42:20.418Z,2.00
2024-03-07T02:44:49.148Z,1.90
2024-03-07T02:47:18.784Z,1.90
2024-03-07T02:49:47.172Z,1.90
2024-03-07T02:52:15.501Z,1.90
2024-03-07T02:54:43.938Z,1.90
2024-03-07T02:57:13.875Z,1.90
2024-03-07T02:59:42.319Z,1.90
2024-03-07T03:02:10.820Z,1.90
2024-03-07T03:04:39.476Z,1.90
2024-03-07T03:07:08.098Z,1.90
2024-03-07T03:09:40.952Z,1.90
2024-03-07T03:12:09.807Z,1.90
2024-03-07T03:14:40.975Z,1.90
2024-03-07T03:17:10.189Z,1.90
2024-03-07T03:19:38.768Z,1.90
2024-03-07T03:22:10.046Z,1.90
2024-03-07T03:24:38.400Z,1.90
2024-03-07T03:27:06.878Z,1.90
2024-03-07T03:29:35.323Z,1.90
2024-03-07T03:32:05.373Z,1.90
2024-03-07T03:34:34.732Z,1.90
2024-03-07T03:37:03.027Z,1.90
2024-03-07T03:39:31.514Z,1.90
2024-03-07T03:41:59.982Z,1.90
2024-03-07T03:44:28.727Z,2.00
2024-03-07T03:46:57.132Z,2.00
2024-03-07T03:49:26.898Z,2.00
2024-03-07T03:51:55.833Z,2.00
2024-03-07T03:54:24.172Z,2.10
2024-03-07T03:56:52.982Z,2.00
2024-03-07T03:59:21.371Z,2.10
2024-03-07T04:01:50.473Z,2.10
2024-03-07T04:04:19.441Z,2.10
2024-03-07T04:06:49.341Z,2.20
2024-03-07T04:09:17.675Z,2.10
2024-03-07T04:11:47.747Z,2.20
2024-03-07T04:14:16.322Z,2.20
2024-03-07T04:16:45.888Z,2.20
2024-03-07T04:19:14.393Z,2.30
2024-03-07T04:21:42.846Z,2.20
2024-03-07T04:24:13.592Z,2.20
2024-03-07T04:26:42.976Z,2.20
2024-03-07T04:29:12.713Z,2.30
2024-03-07T04:31:41.433Z,2.30
2024-03-07T04:34:10.574Z,2.30
2024-03-07T04:36:39.152Z,2.30
2024-03-07T04:39:15.852Z,2.30
2024-03-07T04:41:45.714Z,2.30
2024-03-07T04:44:14.140Z,2.30
2024-03-07T04:46:45.652Z,2.30
2024-03-07T04:49:15.185Z,2.40
2024-03-07T04:51:44.346Z,2.40
2024-03-07T04:54:12.660Z,2.40
2024-03-07T04:56:41.190Z,2.40
2024-03-07T04:59:12.822Z,2.40
2024-03-07T05:01:41.430Z,2.40
2024-03-07T05:04:09.937Z,2.50
2024-03-07T05:06:39.356Z,2.40
2024-03-07T05:09:09.865Z,2.50
2024-03-07T05:11:39.117Z,2.50
2024-03-07T05:14:08.832Z,2.50
2024-03-07T05:16:38.592Z,2.50
2024-03-07T05:19:09.246Z,2.60
2024-03-07T05:21:41.627Z,2.60
2024-03-07T05:24:10.430Z,2.60
2024-03-07T05:26:41.398Z,2.60
2024-03-07T05:29:10.885Z,2.60
2024-03-07T05:31:48.279Z,2.60
2024-03-07T05:34:20.312Z,2.60
2024-03-07T05:36:50.201Z,2.60
2024-03-07T05:39:20.157Z,2.60
2024-03-07T05:41:49.680Z,2.60
2024-03-07T05:44:18.249Z,2.60
2024-03-07T05:46:49.882Z,2.70
2024-03-07T05:49:19.158Z,2.70
2024-03-07T05:51:48.538Z,2.70
2024-03-07T05:54:17.265Z,2.70
2024-03-07T05:56:45.728Z,2.70
2024-03-07T05:59:14.118Z,2.70
2024-03-07T06:01:42.477Z,2.70
2024-03-07T06:04:13.806Z,2.70
2024-03-07T06:06:42.769Z,2.70
2024-03-07T06:09:15.009Z,2.70
2024-03-07T06:11:44.308Z,2.70
2024-03-07T06:14:14.999Z,2.80
2024-03-07T06:16:43.487Z,2.80
2024-03-07T06:19:13.835Z,2.80
2024-03-07T06:21:43.669Z,2.80
2024-03-07T06:24:16.985Z,2.80
2024-03-07T06:26:50.374Z,2.90
2024-03-07T06:29:20.300Z,2.90
2024-03-07T06:31:49.083Z,2.90
2024-03-07T06:34:19.162Z,2.90
2024-03-07T06:36:47.952Z,2.90
2024-03-07T06:39:16.612Z,2.90
2024-03-07T06:41:46.942Z,2.90
2024-03-07T06:44:15.447Z,3.00
2024-03-07T06:46:46.867Z,3.00
2024-03-07T06:49:16.887Z,3.00
2024-03-07T06:51:48.347Z,3.10
2024-03-07T06:54:16.794Z,3.10
2024-03-07T06:56:46.003Z,3.10
2024-03-07T06:59:16.776Z,3.20
2024-03-07T07:01:46.509Z,3.20
2024-03-07T07:04:16.453Z,3.20
2024-03-07T07:06:47.473Z,3.30
2024-03-07T07:09:20.215Z,3.30
2024-03-07T07:11:48.834Z,3.30
2024-03-07T07:14:20.702Z,3.40
2024-03-07T07:16:49.151Z,3.40
2024-03-07T07:19:17.750Z,3.40
2024-03-07T07:21:50.871Z,3.50
2024-03-07T07:24:21.897Z,3.50
2024-03-07T07:26:50.250Z,3.50
2024-03-07T07:29:21.084Z,3.60
2024-03-07T07:31:49.564Z,3.60
2024-03-07T07:34:18.448Z,3.70
2024-03-07T07:36:54.078Z,3.70
2024-03-07T07:39:22.461Z,3.70
2024-03-07T07:41:50.851Z,3.80
2024-03-07T07:44:22.273Z,3.80
2024-03-07T07:46:50.795Z,3.80
2024-03-07T07:49:20.783Z,3.90
2024-03-07T07:51:58.927Z,3.90
2024-03-07T07:54:27.302Z,4.00
2024-03-07T07:56:55.657Z,4.00
2024-03-07T07:59:28.460Z,4.10
2024-03-07T08:01:56.968Z,4.10
2024-03-07T08:04:25.513Z,4.20
2024-03-07T08:06:57.800Z,4.20
2024-03-07T08:09:26.244Z,4.30
2024-03-07T08:11:54.788Z,4.30
2024-03-07T08:14:30.968Z,4.30
2024-03-07T08:16:59.378Z,4.40
2024-03-07T08:19:27.743Z,4.50
2024-03-07T08:22:00.907Z,4.50
2024-03-07T08:24:29.317Z,4.60
2024-03-07T08:26:57.690Z,4.60
2024-03-07T08:29:34.905Z,4.60
2024-03-07T08:32:04.354Z,4.60
2024-03-07T08:34:32.829Z,4.70
2024-03-07T08:37:05.143Z,4.70
2024-03-07T08:39:35.533Z,4.70
2024-03-07T08:42:07.017Z,4.80
2024-03-07T08:44:38.377Z,4.80
2024-03-07T08:47:06.838Z,4.90
2024-03-07T08:49:35.473Z,4.90
2024-03-07T08:52:04.879Z,5.00
2024-03-07T08:54:34.750Z,5.10
2024-03-07T08:57:03.264Z,5.10
2024-03-07T08:59:31.653Z,5.20
2024-03-07T09:02:03.305Z,5.40
2024-03-07T09:04:33.684Z,5.50
2024-03-07T09:07:01.989Z,5.60
2024-03-07T09:09:30.485Z,5.70
2024-03-07T09:11:58.996Z,5.80
2024-03-07T09:14:30.262Z,5.90
2024-03-07T09:17:00.341Z,5.90
2024-03-07T09:19:29.648Z,5.90
2024-03-07T09:22:01.049Z,5.80
2024-03-07T09:24:30.638Z,5.80
2024-03-07T09:26:59.326Z,5.80
2024-03-07T09:29:28.777Z,5.80
2024-03-07T09:31:58.371Z,5.80
2024-03-07T09:34:28.621Z,5.80
2024-03-07T09:36:57.306Z,5.90
2024-03-07T09:39:28.011Z,5.90
2024-03-07T09:41:56.763Z,5.90
2024-03-07T09:44:31.455Z,5.90
2024-03-07T09:47:01.326Z,5.90
2024-03-07T09:49:31.448Z,5.90
2024-03-07T09:52:04.754Z,5.90
2024-03-07T09:54:33.153Z,6.00
2024-03-07T09:57:04.178Z,6.00
2024-03-07T09:59:37.964Z,6.00
2024-03-07T10:02:11.165Z,6.00
2024-03-07T10:04:46.547Z,6.00
2024-03-07T10:07:15.143Z,6.00
2024-03-07T10:09:44.213Z,6.00
2024-03-07T10:12:16.646Z,6.00
2024-03-07T10:14:52.162Z,6.00
2024-03-07T10:17:20.809Z,6.00
2024-03-07T10:19:54.281Z,6.00
2024-03-07T10:22:22.657Z,6.00
2024-03-07T10:24:56.176Z,6.00
2024-03-07T10:27:28.421Z,6.00
2024-03-07T10:29:57.532Z,6.00
2024-03-07T10:32:27.506Z,6.00
2024-03-07T10:35:00.155Z,6.00
2024-03-07T10:37:29.048Z,6.00
2024-03-07T10:39:57.612Z,6.00
2024-03-07T10:42:31.453Z,6.00
2024-03-07T10:45:06.986Z,6.10
2024-03-07T10:47:40.245Z,6.10
2024-03-07T10:50:19.465Z,6.10
2024-03-07T10:52:53.478Z,6.10
2024-03-07T10:55:34.050Z,6.10
2024-03-07T10:58:14.247Z,6.10
2024-03-07T11:00:49.159Z,6.10
2024-03-07T11:03:22.285Z,6.10
2024-03-07T11:05:55.342Z,6.10
2024-03-07T11:08:24.971Z,6.10
2024-03-07T11:10:53.644Z,6.10
2024-03-07T11:13:22.795Z,6.10
2024-03-07T11:16:01.056Z,6.10
2024-03-07T11:18:31.039Z,6.10
2024-03-07T11:21:01.147Z,6.20
2024-03-07T11:23:32.183Z,6.10
2024-03-07T11:26:10.026Z,6.10
2024-03-07T11:28:39.907Z,6.10
2024-03-07T11:31:16.113Z,6.10
2024-03-07T11:33:45.333Z,6.10
2024-03-07T11:36:35.579Z,6.10
2024-03-07T11:39:25.366Z,6.10
2024-03-07T11:41:55.009Z,6.00
2024-03-07T11:44:24.035Z,6.00
2024-03-07T11:46:52.920Z,6.00
2024-03-07T11:49:23.625Z,6.00
2024-03-07T11:51:53.695Z,6.00
2024-03-07T11:54:25.950Z,6.00
2024-03-07T11:56:58.172Z,6.00
2024-03-07T11:59:33.554Z,6.00
2024-03-07T12:02:02.670Z,5.90
2024-03-07T12:04:31.172Z,5.90
2024-03-07T12:07:01.728Z,5.90
2024-03-07T12:09:30.087Z,5.90
2024-03-07T12:12:01.199Z,5.80
2024-03-07T12:14:30.540Z,5.90
2024-03-07T12:16:59.411Z,5.90
2024-03-07T12:19:28.316Z,5.90
2024-03-07T12:22:05.650Z,5.90
2024-03-07T12:24:35.821Z,5.90
2024-03-07T12:27:10.444Z,5.80
2024-03-07T12:29:40.421Z,5.90
2024-03-07T12:32:11.827Z,5.90
2024-03-07T12:34:42.053Z,5.90
2024-03-07T12:37:12.179Z,5.90
2024-03-07T12:39:48.832Z,5.90
2024-03-07T12:42:19.319Z,6.00
2024-03-07T12:44:48.739Z,6.00
2024-03-07T12:47:18.053Z,6.10
2024-03-07T12:49:47.095Z,6.10
2024-03-07T12:52:17.200Z,6.10
2024-03-07T12:54:45.588Z,6.10
2024-03-07T12:57:14.022Z,6.10
2024-03-07T12:59:43.368Z,6.10
2024-03-07T13:02:14.295Z,6.20
2024-03-07T13:04:44.555Z,6.20
2024-03-07T13:07:16.223Z,6.20
2024-03-07T13:09:50.674Z,6.20
2024-03-07T13:12:19.767Z,6.10
2024-03-07T13:14:49.252Z,6.10
2024-03-07T13:17:19.044Z,6.10
2024-03-07T13:19:51.749Z,6.10
2024-03-07T13:22:20.264Z,6.10
2024-03-07T13:24:53.042Z,6.10
2024-03-07T13:27:29.298Z,6.00
2024-03-07T13:29:58.171Z,6.00
2024-03-07T13:32:30.121Z,6.00
2024-03-07T13:35:01.033Z,6.00
2024-03-07T13:37:29.478Z,6.10
2024-03-07T13:40:00.646Z,6.10
2024-03-07T13:42:29.031Z,6.10
2024-03-07T13:44:57.835Z,6.10
2024-03-07T13:47:26.528Z,6.10
2024-03-07T13:49:54.908Z,6.10
2024-03-07T13:52:24.050Z,6.10
2024-03-07T13:54:55.759Z,6.10
2024-03-07T13:57:35.756Z,6.10
2024-03-07T14:00:27.871Z,6.10
2024-03-07T14:03:17.198Z,6.10
2024-03-07T14:06:07.800Z,6.10
2024-03-07T14:09:21.646Z,6.00
2024-03-07T14:12:23.057Z,6.00
2024-03-07T14:15:37.524Z,6.00
2024-03-07T14:18:34.669Z,6.00
2024-03-07T14:21:36.376Z,6.10
2024-03-07T14:24:41.893Z,6.10
2024-03-07T14:27:28.186Z,6.10
2024-03-07T14:30:27.615Z,6.00
2024-03-07T14:33:02.631Z,6.00
2024-03-07T14:35:37.638Z,6.00
2024-03-07T14:38:25.936Z,6.00
2024-03-07T14:40:55.140Z,6.00
2024-03-07T14:43:25.469Z,5.90
2024-03-07T14:45:56.528Z,5.90
2024-03-07T14:48:26.668Z,5.90
2024-03-07T14:50:55.368Z,5.90
2024-03-07T14:53:24.349Z,5.90
2024-03-07T14:55:53.558Z,5.90
2024-03-07T14:58:21.893Z,5.80
2024-03-07T15:00:57.578Z,5.80
2024-03-07T15:03:30.748Z,5.80
2024-03-07T15:05:59.873Z,5.80
2024-03-07T15:08:29.656Z,5.80
2024-03-07T15:11:05.101Z,5.80
2024-03-07T15:13:38.172Z,5.80
2024-03-07T15:16:11.239Z,5.80
2024-03-07T15:18:46.251Z,5.80
2024-03-07T15:21:18.499Z,5.70
2024-03-07T15:23:48.747Z,5.70
2024-03-07T15:26:19.444Z,5.80
2024-03-07T15:28:48.044Z,5.70
2024-03-07T15:31:20.796Z,5.70
2024-03-07T15:33:52.187Z,5.80
2024-03-07T15:36:22.614Z,5.80
2024-03-07T15:38:52.086Z,5.80
2024-03-07T15:41:20.895Z,5.80
2024-03-07T15:43:49.519Z,5.80
2024-03-07T15:46:19.473Z,5.80
2024-03-07T15:48:49.888Z,5.80
2024-03-07T15:51:20.287Z,5.80
2024-03-07T15:53:48.800Z,5.80
2024-03-07T15:56:17.647Z,5.80
2024-03-07T15:58:46.722Z,5.80
2024-03-07T16:01:19.423Z,5.80
2024-03-07T16:03:48.441Z,5.90
2024-03-07T16:06:17.825Z,5.90
2024-03-07T16:08:48.523Z,5.90
2024-03-07T16:11:26.541Z,5.90
2024-03-07T16:13:54.988Z,5.90
2024-03-07T16:16:23.771Z,5.90
2024-03-07T16:18:53.662Z,5.90
2024-03-07T16:21:23.664Z,5.90
2024-03-07T16:23:54.600Z,5.90
2024-03-07T16:26:23.032Z,5.90
2024-03-07T16:28:52.837Z,5.90
2024-03-07T16:31:21.244Z,5.90
2024-03-07T16:33:49.727Z,5.90
2024-03-07T16:36:18.191Z,5.90
2024-03-07T16:38:47.605Z,5.90
2024-03-07T16:41:17.384Z,5.80
2024-03-07T16:43:45.856Z,5.80
2024-03-07T16:46:15.168Z,5.80
2024-03-07T16:48:44.450Z,5.80
2024-03-07T16:51:13.296Z,5.80
2024-03-07T16:53:41.716Z,5.70
2024-03-07T16:56:11.044Z,5.70
2024-03-07T16:58:40.756Z,5.70
2024-03-07T17:01:09.125Z,5.70
2024-03-07T17:03:38.229Z,5.60
2024-03-07T17:06:10.922Z,5.60
2024-03-07T17:08:39.615Z,5.60
2024-03-07T17:11:08.779Z,5.60
2024-03-07T17:13:38.132Z,5.50
2024-03-07T17:16:08.494Z,5.50
2024-03-07T17:18:36.970Z,5.50
2024-03-07T17:21:09.375Z,5.40
2024-03-07T17:23:37.883Z,5.40
2024-03-07T17:26:06.259Z,5.40
2024-03-07T17:28:34.671Z,5.40
2024-03-07T17:31:03.013Z,5.30
2024-03-07T17:33:32.879Z,5.30
2024-03-07T17:36:07.309Z,5.30
2024-03-07T17:38:37.654Z,5.30
2024-03-07T17:41:07.276Z,5.20
2024-03-07T17:43:35.682Z,5.20
2024-03-07T17:46:07.985Z,5.20
2024-03-07T17:48:38.809Z,5.10
2024-03-07T17:51:08.314Z,5.10
2024-03-07T17:53:38.587Z,5.10
2024-03-07T17:56:07.972Z,5.10
2024-03-07T17:58:36.703Z,5.00
2024-03-07T18:01:07.536Z,5.00
2024-03-07T18:03:39.336Z,5.00
2024-03-07T18:06:10.116Z,5.00
2024-03-07T18:08:45.400Z,4.90
2024-03-07T18:11:17.672Z,4.90
2024-03-07T18:13:47.521Z,4.90
2024-03-07T18:16:16.568Z,4.90
2024-03-07T18:18:50.335Z,4.80
2024-03-07T18:21:19.223Z,4.80
2024-03-07T18:23:47.857Z,4.80
2024-03-07T18:26:16.684Z,4.80
2024-03-07T18:28:45.775Z,4.70
2024-03-07T18:31:17.378Z,4.70
2024-03-07T18:33:47.544Z,4.70
2024-03-07T18:36:16.055Z,4.70
2024-03-07T18:38:46.548Z,4.60
2024-03-07T18:41:15.235Z,4.60
2024-03-07T18:43:43.690Z,4.60
2024-03-07T18:46:12.680Z,4.60
2024-03-07T18:48:41.316Z,4.50
2024-03-07T18:51:11.269Z,4.50
2024-03-07T18:53:39.834Z,4.50
2024-03-07T18:56:12.136Z,4.50
2024-03-07T18:58:41.029Z,4.50
2024-03-07T19:01:09.901Z,4.50
2024-03-07T19:03:38.342Z,4.50
2024-03-07T19:06:09.921Z,4.50
2024-03-07T19:08:40.838Z,4.40
2024-03-07T19:11:09.527Z,4.40
2024-03-07T19:13:38.277Z,4.40
2024-03-07T19:16:10.075Z,4.40
2024-03-07T19:18:38.873Z,4.40
2024-03-07T19:21:11.796Z,4.30
2024-03-07T19:23:46.935Z,4.30
2024-03-07T19:26:20.791Z,4.30
2024-03-07T19:28:49.852Z,4.20
2024-03-07T19:31:18.532Z,4.20
2024-03-07T19:33:47.577Z,4.20
2024-03-07T19:36:16.647Z,4.20
2024-03-07T19:38:48.809Z,4.10
2024-03-07T19:41:17.958Z,4.10
2024-03-07T19:43:46.378Z,4.10
2024-03-07T19:46:14.916Z,4.10
2024-03-07T19:48:44.413Z,4.00
2024-03-07T19:51:13.426Z,4.00
2024-03-07T19:53:42.412Z,4.00
2024-03-07T19:56:19.900Z,4.00
2024-03-07T19:58:49.508Z,4.00
2024-03-07T20:01:17.892Z,4.00
2024-03-07T20:03:46.944Z,3.90
2024-03-07T20:06:16.513Z,3.90
2024-03-07T20:08:45.977Z,3.90
2024-03-07T20:11:16.091Z,3.90
2024-03-07T20:13:44.507Z,3.80
2024-03-07T20:16:12.818Z,3.80
2024-03-07T20:18:42.926Z,3.80
2024-03-07T20:21:12.402Z,3.80
2024-03-07T20:23:42.209Z,3.80
2024-03-07T20:26:11.001Z,3.70
2024-03-07T20:28:40.750Z,3.70
2024-03-07T20:31:10.216Z,3.60
2024-03-07T20:33:39.175Z,3.60
2024-03-07T20:36:09.672Z,3.60
2024-03-07T20:38:39.845Z,3.60
2024-03-07T20:41:08.450Z,3.50
2024-03-07T20:43:37.846Z,3.50
2024-03-07T20:46:08.522Z,3.50
2024-03-07T20:48:37.741Z,3.50
2024-03-07T20:51:07.828Z,3.40
2024-03-07T20:53:36.489Z,3.40
2024-03-07T20:56:07.379Z,3.40
2024-03-07T20:58:37.235Z,3.40
2024-03-07T21:01:10.837Z,3.30
2024-03-07T21:03:42.699Z,3.30
2024-03-07T21:06:12.940Z,3.30
2024-03-07T21:08:43.394Z,3.30
2024-03-07T21:11:13.239Z,3.30
2024-03-07T21:13:42.058Z,3.30
2024-03-07T21:16:13.328Z,3.30
2024-03-07T21:18:42.631Z,3.30
2024-03-07T21:21:11.211Z,3.30
2024-03-07T21:23:41.347Z,3.20
2024-03-07T21:26:13.415Z,3.20
2024-03-07T21:28:42.072Z,3.20
2024-03-07T21:31:12.310Z,3.20
2024-03-07T21:33:41.228Z,3.20
2024-03-07T21:36:11.080Z,3.20
2024-03-07T21:38:39.656Z,3.20
2024-03-07T21:41:10.009Z,3.20
2024-03-07T21:43:39.267Z,3.20
2024-03-07T21:46:09.141Z,3.20
2024-03-07T21:48:39.008Z,3.20
2024-03-07T21:51:11.281Z,3.20
2024-03-07T21:53:45.350Z,3.10
2024-03-07T21:56:14.234Z,3.20
2024-03-07T21:58:43.128Z,3.10
2024-03-07T22:01:13.378Z,3.10
2024-03-07T22:03:44.276Z,3.10
2024-03-07T22:06:13.875Z,3.10
2024-03-07T22:08:43.083Z,3.10
2024-03-07T22:11:16.495Z,3.10
2024-03-07T22:13:45.909Z,3.10
2024-03-07T22:16:14.246Z,3.10
2024-03-07T22:18:44.851Z,3.10
2024-03-07T22:21:13.865Z,3.10
2024-03-07T22:23:42.373Z,3.10
2024-03-07T22:26:13.110Z,3.10
2024-03-07T22:28:41.609Z,3.10
2024-03-07T22:31:11.106Z,3.00
2024-03-07T22:33:39.760Z,3.00
2024-03-07T22:36:11.012Z,3.10
2024-03-07T22:38:39.542Z,3.00
2024-03-07T22:41:08.155Z,3.00
2024-03-07T22:43:36.519Z,3.00
2024-03-07T22:46:05.498Z,3.00
2024-03-07T22:48:36.933Z,3.00
2024-03-07T22:51:07.043Z,3.00
2024-03-07T22:53:37.248Z,3.00
2024-03-07T22:56:06.566Z,3.00
2024-03-07T22:58:35.058Z,3.00
2024-03-07T23:01:05.650Z,3.00
2024-03-07T23:03:34.082Z,3.00
2024-03-07T23:06:02.659Z,3.00
2024-03-07T23:08:31.119Z,3.00
2024-03-07T23:11:00.965Z,3.00
2024-03-07T23:13:29.693Z,3.00
2024-03-07T23:15:59.105Z,2.90
2024-03-07T23:18:27.659Z,2.90
2024-03-07T23:20:57.567Z,2.90
2024-03-07T23:23:26.111Z,2.90
2024-03-07T23:25:54.607Z,2.90
2024-03-07T23:28:24.756Z,2.90
2024-03-07T23:30:53.196Z,2.90
2024-03-07T23:33:22.741Z,2.80
2024-03-07T23:35:51.321Z,2.80
2024-03-07T23:38:19.775Z,2.80
2024-03-07T23:40:48.362Z,2.80
2024-03-07T23:43:19.061Z,2.80
2024-03-07T23:45:49.046Z,2.80
2024-03-07T23:48:17.816Z,2.80
2024-03-07T23:50:46.277Z,2.80
2024-03-07T23:53:14.913Z,2.70
2024-03-07T23:55:44.481Z,2.70
2024-03-07T23:58:12.881Z,2.70
